Time;durP1;ratioP1;P1;durP2;ratioP2;P2;SDS_P1;SDS_P2;PMS_P1;PMS_P2;Temp;Humidity;BMP_temperature;BMP_pressure;BME280_temperature;BME280_humidity;BME280_pressure;Samples;Min_cycle;Max_cycle;Signal;HPM_P1;HPM_P2
2022/06/25 00:01:51;;;;;;;10.43;9.18;;;;;;;;;;5077236;28;20039;-63
2022/06/25 00:07:03;;;;;;;10.55;9.10;;;;;;;;;;5079910;28;20048;-63
2022/06/25 00:09:29;;;;;;;10.85;8.77;;;;;;;;;;5072876;28;20033;-63
2022/06/25 00:14:39;;;;;;;10.65;9.55;;;;;;;;;;5074034;28;20119;-62
2022/06/25 00:17:06;;;;;;;9.60;8.60;;;;;;;;;;5079834;28;20112;-63
2022/06/25 00:19:32;;;;;;;12.98;10.25;;;;;;;;;;5082855;28;20525;-63
2022/06/25 00:21:58;;;;;;;11.85;10.65;;;;;;;;;;5079267;28;20097;-62
2022/06/25 00:24:24;;;;;;;10.82;9.65;;;;;;;;;;5075261;28;20094;-63
2022/06/25 00:26:51;;;;;;;10.90;9.80;;;;;;;;;;5067909;28;20445;-62
2022/06/25 00:29:17;;;;;;;10.50;9.50;;;;;;;;;;5071733;28;20036;-62
2022/06/25 00:31:43;;;;;;;9.45;8.55;;;;;;;;;;5070515;28;20028;-63
2022/06/25 00:34:09;;;;;;;10.82;9.73;;;;;;;;;;5066503;28;20044;-62
2022/06/25 00:36:36;;;;;;;9.93;8.93;;;;;;;;;;5077161;28;20505;-63
2022/06/25 00:39:02;;;;;;;11.15;9.57;;;;;;;;;;5071140;28;20044;-62
2022/06/25 00:41:28;;;;;;;12.40;9.75;;;;;;;;;;5069584;28;20044;-63
2022/06/25 00:43:54;;;;;;;10.38;9.27;;;;;;;;;;5079528;28;20066;-62
2022/06/25 00:46:20;;;;;;;10.13;9.07;;;;;;;;;;5074782;28;20059;-63
2022/06/25 00:48:46;;;;;;;10.38;9.30;;;;;;;;;;5076173;28;20116;-63
2022/06/25 00:51:14;;;;;;;11.07;9.98;;;;;;;;;;5085624;28;20512;-62
2022/06/25 00:53:41;;;;;;;10.75;9.60;;;;;;;;;;5073324;28;20047;-62
2022/06/25 00:56:08;;;;;;;12.88;10.02;;;;;;;;;;5073278;28;20052;-62
2022/06/25 00:58:34;;;;;;;12.38;10.15;;;;;;;;;;5073401;28;20044;-62
2022/06/25 01:01:03;;;;;;;11.20;10.10;;;;;;;;;;5078150;28;20481;-62
2022/06/25 01:03:29;;;;;;;11.63;10.43;;;;;;;;;;5079477;28;20032;-63
2022/06/25 01:05:55;;;;;;;12.18;10.60;;;;;;;;;;5075635;28;20098;-62
2022/06/25 01:08:21;;;;;;;9.98;8.95;;;;;;;;;;5078064;28;20044;-62
2022/06/25 01:10:47;;;;;;;11.15;9.93;;;;;;;;;;5071935;28;20139;-63
2022/06/25 01:13:13;;;;;;;9.80;8.80;;;;;;;;;;5081521;28;20036;-63
2022/06/25 01:15:39;;;;;;;14.73;11.20;;;;;;;;;;5071478;28;20551;-62
2022/06/25 01:18:07;;;;;;;13.98;10.05;;;;;;;;;;5070308;28;20064;-62
2022/06/25 01:20:34;;;;;;;10.65;9.27;;;;;;;;;;5082500;28;20040;-62
2022/06/25 01:23:00;;;;;;;10.50;9.48;;;;;;;;;;5081566;28;20066;-62
2022/06/25 01:25:33;;;;;;;12.07;10.82;;;;;;;;;;5084523;28;20039;-63
2022/06/25 01:27:59;;;;;;;10.38;9.35;;;;;;;;;;5065878;28;20041;-62
2022/06/25 01:30:25;;;;;;;10.73;9.63;;;;;;;;;;5077317;28;20164;-62
2022/06/25 01:32:52;;;;;;;10.50;9.40;;;;;;;;;;5045158;28;20045;-62
2022/06/25 01:35:18;;;;;;;10.95;9.85;;;;;;;;;;5074171;28;20052;-62
2022/06/25 01:37:44;;;;;;;12.00;9.57;;;;;;;;;;5084183;28;20153;-62
2022/06/25 01:40:10;;;;;;;14.45;11.02;;;;;;;;;;5064015;28;20044;-62
2022/06/25 01:45:22;;;;;;;10.95;9.93;;;;;;;;;;5083832;28;20040;-62
2022/06/25 01:47:48;;;;;;;17.73;12.93;;;;;;;;;;5069792;28;20039;-62
2022/06/25 01:50:14;;;;;;;12.43;11.23;;;;;;;;;;5084081;28;20203;-63
2022/06/25 01:52:40;;;;;;;15.88;11.40;;;;;;;;;;5082941;28;20047;-62
2022/06/25 01:55:07;;;;;;;13.50;11.90;;;;;;;;;;5073799;28;20036;-62
2022/06/25 01:57:33;;;;;;;13.48;12.07;;;;;;;;;;5065753;28;20036;-62
2022/06/25 01:59:59;;;;;;;13.90;12.35;;;;;;;;;;5080900;28;20517;-62
2022/06/25 02:02:25;;;;;;;13.88;12.38;;;;;;;;;;5065989;28;20051;-63
2022/06/25 02:04:51;;;;;;;15.63;13.40;;;;;;;;;;5083319;28;20056;-62
2022/06/25 02:07:17;;;;;;;16.77;14.00;;;;;;;;;;5069480;28;20045;-62
2022/06/25 02:09:43;;;;;;;14.82;13.15;;;;;;;;;;5068888;28;20080;-62
2022/06/25 02:12:09;;;;;;;17.13;12.95;;;;;;;;;;5060251;28;20068;-63
2022/06/25 02:14:35;;;;;;;14.50;12.85;;;;;;;;;;5066618;28;20048;-62
2022/06/25 02:17:01;;;;;;;13.32;12.02;;;;;;;;;;5070893;28;20455;-63
2022/06/25 02:19:28;;;;;;;15.63;12.68;;;;;;;;;;5084610;28;20120;-62
2022/06/25 02:21:54;;;;;;;14.35;12.20;;;;;;;;;;5077629;28;20493;-62
2022/06/25 02:24:20;;;;;;;14.98;13.18;;;;;;;;;;5068922;28;20044;-63
2022/06/25 02:26:46;;;;;;;16.20;13.38;;;;;;;;;;5069473;28;20445;-62
2022/06/25 02:29:12;;;;;;;16.17;13.82;;;;;;;;;;5074107;28;20119;-62
2022/06/25 02:31:38;;;;;;;14.93;12.88;;;;;;;;;;5081844;28;20043;-62
2022/06/25 02:34:04;;;;;;;14.90;13.30;;;;;;;;;;5090358;28;20070;-62
2022/06/25 02:36:30;;;;;;;17.08;13.35;;;;;;;;;;5071948;28;20455;-62
2022/06/25 02:38:56;;;;;;;15.10;12.77;;;;;;;;;;5066326;28;20041;-62
2022/06/25 02:41:22;;;;;;;14.45;12.93;;;;;;;;;;5075699;28;20089;-62
2022/06/25 02:43:48;;;;;;;15.70;13.05;;;;;;;;;;5057203;28;20111;-62
2022/06/25 02:46:14;;;;;;;16.15;13.65;;;;;;;;;;5079399;28;20111;-62
2022/06/25 02:48:40;;;;;;;15.18;13.57;;;;;;;;;;5086977;28;20550;-62
2022/06/25 02:51:06;;;;;;;14.27;12.30;;;;;;;;;;5069322;28;20124;-63
2022/06/25 02:53:32;;;;;;;16.98;13.25;;;;;;;;;;5074652;28;20064;-62
2022/06/25 02:58:55;;;;;;;13.83;12.10;;;;;;;;;;5079700;28;20033;-62
2022/06/25 03:01:21;;;;;;;14.30;12.27;;;;;;;;;;5079346;28;20048;-62
2022/06/25 03:03:48;;;;;;;14.07;12.30;;;;;;;;;;5078616;28;20032;-62
2022/06/25 03:06:14;;;;;;;14.65;12.05;;;;;;;;;;5054586;28;20033;-63
2022/06/25 03:08:40;;;;;;;13.80;11.93;;;;;;;;;;5054827;28;20052;-62
2022/06/25 03:11:07;;;;;;;12.93;11.60;;;;;;;;;;5072980;28;20093;-62
2022/06/25 03:13:36;;;;;;;12.70;11.02;;;;;;;;;;5066379;28;20612;-62
2022/06/25 03:16:02;;;;;;;13.10;11.63;;;;;;;;;;5078978;28;20486;-62
2022/06/25 03:18:28;;;;;;;12.57;11.27;;;;;;;;;;5095470;28;20401;-63
2022/06/25 03:20:54;;;;;;;16.85;11.20;;;;;;;;;;5091903;28;20100;-62
2022/06/25 03:23:20;;;;;;;15.13;11.38;;;;;;;;;;5074442;28;20055;-63
2022/06/25 03:25:47;;;;;;;12.80;11.45;;;;;;;;;;5069396;28;20506;-62
2022/06/25 03:28:13;;;;;;;14.77;11.07;;;;;;;;;;5061786;28;20046;-63
2022/06/25 03:30:39;;;;;;;15.15;12.10;;;;;;;;;;5077639;28;20122;-62
2022/06/25 03:33:05;;;;;;;14.82;11.27;;;;;;;;;;5084396;28;20558;-62
2022/06/25 03:35:31;;;;;;;12.88;11.02;;;;;;;;;;5069501;28;20048;-62
2022/06/25 03:37:57;;;;;;;13.85;11.25;;;;;;;;;;5056887;28;20048;-62
2022/06/25 03:40:23;;;;;;;12.45;11.15;;;;;;;;;;5074195;28;20090;-62
2022/06/25 03:42:49;;;;;;;12.48;11.18;;;;;;;;;;5073257;28;20036;-62
2022/06/25 03:45:16;;;;;;;11.93;10.23;;;;;;;;;;5095022;28;20032;-62
2022/06/25 03:47:50;;;;;;;13.80;11.15;;;;;;;;;;5054718;28;20033;-62
2022/06/25 03:50:17;;;;;;;14.57;11.10;;;;;;;;;;5081510;28;20537;-62
2022/06/25 03:52:43;;;;;;;14.80;11.60;;;;;;;;;;5066019;28;20040;-62
2022/06/25 03:55:09;;;;;;;12.23;10.52;;;;;;;;;;5090776;28;20489;-62
2022/06/25 03:57:35;;;;;;;13.50;11.45;;;;;;;;;;5081865;28;20089;-62
2022/06/25 04:00:02;;;;;;;13.23;10.93;;;;;;;;;;5073122;28;20448;-62
2022/06/25 04:02:28;;;;;;;12.70;10.45;;;;;;;;;;5057931;28;20039;-62
2022/06/25 04:04:54;;;;;;;12.45;11.20;;;;;;;;;;5075207;28;20530;-62
2022/06/25 04:07:20;;;;;;;11.50;10.07;;;;;;;;;;5079738;28;20044;-62
2022/06/25 04:09:46;;;;;;;12.73;10.13;;;;;;;;;;5081669;28;20120;-62
2022/06/25 04:12:12;;;;;;;11.77;10.40;;;;;;;;;;5082139;28;20051;-62
2022/06/25 04:14:39;;;;;;;12.50;10.77;;;;;;;;;;5073382;28;20037;-63
2022/06/25 04:17:06;;;;;;;11.68;10.48;;;;;;;;;;5117730;22;20047;-66
2022/06/25 04:19:39;;;;;;;11.80;10.15;;;;;;;;;;5098827;28;20034;-65
2022/06/25 04:22:07;;;;;;;14.15;10.48;;;;;;;;;;5092327;28;20424;-66
2022/06/25 04:24:33;;;;;;;13.05;10.75;;;;;;;;;;5092670;28;20169;-66
2022/06/25 04:26:58;;;;;;;13.93;10.43;;;;;;;;;;5098847;28;20460;-66
2022/06/25 04:29:24;;;;;;;15.93;10.50;;;;;;;;;;5093795;28;20054;-65
2022/06/25 04:31:50;;;;;;;13.05;9.63;;;;;;;;;;5092487;28;20032;-66
2022/06/25 04:34:16;;;;;;;11.05;9.88;;;;;;;;;;5095426;28;20039;-66
2022/06/25 04:36:42;;;;;;;12.07;10.85;;;;;;;;;;5101412;28;20062;-65
2022/06/25 04:39:08;;;;;;;10.55;9.48;;;;;;;;;;5111551;28;20035;-65
2022/06/25 04:41:34;;;;;;;13.50;9.75;;;;;;;;;;5093250;28;20054;-65
2022/06/25 04:44:01;;;;;;;9.95;8.98;;;;;;;;;;5092658;28;20404;-65
2022/06/25 04:46:29;;;;;;;10.27;9.30;;;;;;;;;;5099432;28;20067;-65
2022/06/25 04:48:55;;;;;;;11.32;9.60;;;;;;;;;;5094880;28;20039;-65
2022/06/25 04:51:21;;;;;;;9.85;8.85;;;;;;;;;;5104918;28;20439;-65
2022/06/25 04:53:56;;;;;;;9.93;8.93;;;;;;;;;;5102465;28;20051;-65
2022/06/25 04:56:26;;;;;;;10.20;9.10;;;;;;;;;;5083668;28;20039;-65
2022/06/25 04:58:52;;;;;;;10.52;8.85;;;;;;;;;;5090798;28;20031;-66
2022/06/25 05:01:18;;;;;;;10.77;8.52;;;;;;;;;;5107307;28;20131;-66
2022/06/25 05:03:44;;;;;;;9.82;8.55;;;;;;;;;;5092613;28;20043;-66
2022/06/25 05:06:10;;;;;;;9.55;8.00;;;;;;;;;;5106207;28;20076;-66
2022/06/25 05:08:36;;;;;;;9.35;8.00;;;;;;;;;;5107820;28;20047;-66
2022/06/25 05:11:03;;;;;;;9.73;7.57;;;;;;;;;;5099790;28;20032;-66
2022/06/25 05:13:29;;;;;;;9.27;7.60;;;;;;;;;;5092634;28;20446;-66
2022/06/25 05:15:55;;;;;;;9.70;7.47;;;;;;;;;;5092025;28;20512;-66
2022/06/25 05:18:21;;;;;;;11.52;8.80;;;;;;;;;;5093311;28;20047;-66
2022/06/25 05:20:47;;;;;;;9.27;7.38;;;;;;;;;;5096691;28;20035;-65
2022/06/25 05:23:14;;;;;;;8.80;7.70;;;;;;;;;;5100693;28;20035;-66
2022/06/25 05:25:40;;;;;;;8.18;7.30;;;;;;;;;;5104226;28;20042;-66
2022/06/25 05:28:06;;;;;;;10.68;6.88;;;;;;;;;;5105364;28;20043;-66
2022/06/25 05:30:33;;;;;;;9.00;7.45;;;;;;;;;;5112146;28;20126;-65
2022/06/25 05:32:59;;;;;;;8.05;6.78;;;;;;;;;;5099893;28;20497;-66
2022/06/25 05:35:25;;;;;;;10.43;6.90;;;;;;;;;;5101315;28;20508;-66
2022/06/25 05:37:51;;;;;;;10.05;7.20;;;;;;;;;;5102399;28;20036;-65
2022/06/25 05:40:17;;;;;;;8.32;7.40;;;;;;;;;;5094077;28;20040;-65
2022/06/25 05:42:44;;;;;;;9.02;6.47;;;;;;;;;;5101228;28;20040;-65
2022/06/25 05:45:10;;;;;;;7.78;6.57;;;;;;;;;;5095309;28;20031;-65
2022/06/25 05:47:36;;;;;;;11.43;7.38;;;;;;;;;;5099885;28;20485;-66
2022/06/25 05:50:02;;;;;;;8.35;7.22;;;;;;;;;;5090525;28;20119;-65
2022/06/25 05:52:28;;;;;;;9.48;6.53;;;;;;;;;;5109629;28;20039;-65
2022/06/25 05:54:54;;;;;;;8.02;6.35;;;;;;;;;;5099142;28;20064;-66
2022/06/25 05:57:20;;;;;;;9.27;6.53;;;;;;;;;;5099858;28;20524;-66
2022/06/25 05:59:46;;;;;;;7.78;6.22;;;;;;;;;;5091893;28;20110;-66
2022/06/25 06:02:12;;;;;;;8.65;6.10;;;;;;;;;;5098595;28;20088;-65
2022/06/25 06:04:38;;;;;;;8.98;6.20;;;;;;;;;;5095395;28;20402;-65
2022/06/25 06:07:05;;;;;;;10.32;6.25;;;;;;;;;;5089732;28;20047;-67
2022/06/25 06:09:32;;;;;;;6.93;5.78;;;;;;;;;;5104288;28;20058;-67
2022/06/25 06:11:58;;;;;;;6.80;5.47;;;;;;;;;;5089988;28;20172;-66
2022/06/25 06:14:24;;;;;;;9.75;5.68;;;;;;;;;;5092397;28;20119;-67
2022/06/25 06:16:50;;;;;;;7.00;5.85;;;;;;;;;;5091993;28;20058;-67
2022/06/25 06:19:16;;;;;;;10.50;5.68;;;;;;;;;;5092019;28;20050;-67
2022/06/25 06:21:43;;;;;;;9.45;5.47;;;;;;;;;;5086859;28;20040;-67
2022/06/25 06:24:09;;;;;;;8.27;5.28;;;;;;;;;;5091632;28;20039;-67
2022/06/25 06:26:35;;;;;;;7.03;5.07;;;;;;;;;;5100177;28;20042;-67
2022/06/25 06:29:01;;;;;;;6.57;4.90;;;;;;;;;;5091973;28;20165;-67
2022/06/25 06:31:27;;;;;;;5.93;4.30;;;;;;;;;;5088483;28;20340;-67
2022/06/25 06:33:53;;;;;;;9.20;5.28;;;;;;;;;;5105244;28;20039;-67
2022/06/25 06:36:19;;;;;;;5.75;4.88;;;;;;;;;;5101738;28;20058;-67
2022/06/25 06:38:45;;;;;;;7.47;4.70;;;;;;;;;;5097905;28;20040;-66
2022/06/25 06:41:16;;;;;;;6.32;4.45;;;;;;;;;;5095661;28;20549;-67
2022/06/25 06:43:43;;;;;;;8.98;4.30;;;;;;;;;;5088211;28;20067;-67
2022/06/25 06:46:09;;;;;;;7.28;3.70;;;;;;;;;;5095682;28;20122;-67
2022/06/25 06:48:35;;;;;;;6.03;4.07;;;;;;;;;;5103428;28;20065;-67
2022/06/25 06:51:01;;;;;;;7.90;3.92;;;;;;;;;;5096561;28;20079;-67
2022/06/25 06:53:27;;;;;;;4.82;3.63;;;;;;;;;;5098850;28;20047;-67
2022/06/25 06:55:53;;;;;;;4.82;3.65;;;;;;;;;;5103825;28;20495;-67
2022/06/25 06:58:19;;;;;;;4.68;3.70;;;;;;;;;;5097361;28;20057;-67
2022/06/25 07:00:45;;;;;;;4.65;3.10;;;;;;;;;;5096258;28;20055;-67
2022/06/25 07:03:11;;;;;;;5.55;3.20;;;;;;;;;;5090605;28;20505;-67
2022/06/25 07:05:37;;;;;;;5.05;3.17;;;;;;;;;;5094453;28;20443;-67
2022/06/25 07:08:03;;;;;;;4.82;3.10;;;;;;;;;;5100377;28;20035;-67
2022/06/25 07:10:29;;;;;;;7.53;3.35;;;;;;;;;;5098768;28;20044;-67
2022/06/25 07:12:55;;;;;;;6.35;3.15;;;;;;;;;;5084112;28;20037;-67
2022/06/25 07:15:21;;;;;;;4.65;3.42;;;;;;;;;;5094984;28;20046;-67
2022/06/25 07:17:47;;;;;;;7.05;3.00;;;;;;;;;;5094168;28;20115;-67
2022/06/25 07:20:13;;;;;;;5.97;3.15;;;;;;;;;;5092914;28;20047;-67
2022/06/25 07:22:39;;;;;;;6.05;3.00;;;;;;;;;;5088715;28;20858;-67
2022/06/25 07:25:06;;;;;;;5.55;2.97;;;;;;;;;;5098195;28;20029;-67
2022/06/25 07:27:32;;;;;;;6.50;2.80;;;;;;;;;;5091761;28;20041;-67
2022/06/25 07:29:58;;;;;;;7.93;2.70;;;;;;;;;;5088098;28;20050;-67
2022/06/25 07:32:24;;;;;;;3.10;2.60;;;;;;;;;;5098701;28;20498;-66
2022/06/25 07:34:50;;;;;;;4.57;2.33;;;;;;;;;;5091341;28;20048;-67
2022/06/25 07:37:16;;;;;;;3.95;2.80;;;;;;;;;;5089704;28;20044;-66
2022/06/25 07:39:43;;;;;;;4.47;2.58;;;;;;;;;;5088970;28;20054;-66
2022/06/25 07:42:09;;;;;;;3.90;2.90;;;;;;;;;;5099664;28;20032;-66
2022/06/25 07:44:35;;;;;;;3.63;3.28;;;;;;;;;;5093973;28;20035;-66
2022/06/25 07:47:01;;;;;;;7.93;2.75;;;;;;;;;;5107819;28;20062;-66
2022/06/25 07:49:27;;;;;;;4.18;2.28;;;;;;;;;;5101675;28;20047;-66
2022/06/25 07:51:56;;;;;;;6.10;2.75;;;;;;;;;;5100505;28;20043;-67
2022/06/25 07:54:22;;;;;;;5.43;3.00;;;;;;;;;;5091440;28;20409;-67
2022/06/25 07:56:48;;;;;;;6.55;2.85;;;;;;;;;;5106990;28;20027;-67
2022/06/25 07:59:15;;;;;;;5.22;2.63;;;;;;;;;;5110092;28;20092;-67
2022/06/25 08:01:41;;;;;;;3.90;2.63;;;;;;;;;;5101076;28;20040;-67
2022/06/25 08:04:07;;;;;;;6.07;3.00;;;;;;;;;;5095038;28;20035;-67
2022/06/25 08:06:34;;;;;;;5.72;3.40;;;;;;;;;;5097801;28;20433;-67
2022/06/25 08:09:01;;;;;;;7.82;2.75;;;;;;;;;;5092838;28;20040;-67
2022/06/25 08:11:27;;;;;;;4.55;2.92;;;;;;;;;;5103566;28;20515;-67
2022/06/25 08:13:53;;;;;;;4.57;2.60;;;;;;;;;;5092538;28;20040;-68
2022/06/25 08:16:21;;;;;;;4.68;2.45;;;;;;;;;;5100045;28;20047;-67
2022/06/25 08:18:47;;;;;;;3.63;2.65;;;;;;;;;;5106576;28;20046;-67
2022/06/25 08:21:13;;;;;;;2.53;2.10;;;;;;;;;;5096506;28;20460;-67
2022/06/25 08:23:39;;;;;;;5.10;2.55;;;;;;;;;;5084376;28;20043;-67
2022/06/25 08:26:05;;;;;;;3.75;2.20;;;;;;;;;;5095342;28;20038;-67
2022/06/25 08:28:31;;;;;;;3.25;2.13;;;;;;;;;;5090561;28;20040;-67
2022/06/25 08:30:57;;;;;;;4.90;2.10;;;;;;;;;;5101635;28;20404;-67
2022/06/25 08:33:23;;;;;;;5.25;2.45;;;;;;;;;;5094499;28;20101;-68
2022/06/25 08:35:50;;;;;;;4.32;1.85;;;;;;;;;;5092342;28;20135;-68
2022/06/25 08:38:17;;;;;;;4.47;2.20;;;;;;;;;;5110741;28;20043;-67
2022/06/25 08:40:43;;;;;;;3.90;2.58;;;;;;;;;;5093483;28;20044;-67
2022/06/25 08:43:09;;;;;;;5.30;2.70;;;;;;;;;;5092834;28;20630;-67
2022/06/25 08:45:35;;;;;;;4.05;2.55;;;;;;;;;;5092813;28;20625;-67
2022/06/25 08:48:01;;;;;;;4.03;2.88;;;;;;;;;;5093250;28;20032;-68
2022/06/25 08:50:27;;;;;;;3.70;2.55;;;;;;;;;;5098907;28;20071;-67
2022/06/25 08:52:56;;;;;;;4.38;2.70;;;;;;;;;;5112038;28;20043;-68
2022/06/25 08:55:26;;;;;;;4.13;2.80;;;;;;;;;;5104051;28;20097;-67
2022/06/25 08:57:52;;;;;;;3.97;2.80;;;;;;;;;;5091909;28;20040;-67
2022/06/25 09:00:18;;;;;;;5.07;2.60;;;;;;;;;;5105346;28;20417;-67
2022/06/25 09:02:44;;;;;;;5.55;2.45;;;;;;;;;;5090460;28;20040;-67
2022/06/25 09:05:10;;;;;;;5.60;2.58;;;;;;;;;;5090590;28;20486;-68
2022/06/25 09:07:36;;;;;;;5.63;2.55;;;;;;;;;;5093456;28;20426;-67
2022/06/25 09:10:03;;;;;;;3.63;2.15;;;;;;;;;;5092716;28;20497;-67
2022/06/25 09:12:29;;;;;;;5.03;2.40;;;;;;;;;;5095461;28;20121;-67
2022/06/25 09:14:55;;;;;;;6.88;3.00;;;;;;;;;;5104843;28;20502;-67
2022/06/25 09:17:21;;;;;;;5.50;2.70;;;;;;;;;;5102661;28;20529;-67
2022/06/25 09:19:48;;;;;;;3.42;2.88;;;;;;;;;;5091902;28;20093;-67
2022/06/25 09:22:15;;;;;;;4.70;2.63;;;;;;;;;;5093059;28;20117;-67
2022/06/25 09:24:54;;;;;;;5.88;2.60;;;;;;;;;;5092886;28;20063;-67
2022/06/25 09:27:36;;;;;;;3.53;2.50;;;;;;;;;;5092936;28;20093;-67
2022/06/25 09:30:09;;;;;;;5.88;2.70;;;;;;;;;;5105295;28;20133;-67
2022/06/25 09:32:48;;;;;;;4.28;2.40;;;;;;;;;;5084750;28;20496;-67
2022/06/25 09:35:15;;;;;;;5.38;2.33;;;;;;;;;;5091428;28;20517;-67
2022/06/25 09:37:42;;;;;;;5.53;2.50;;;;;;;;;;5092699;28;20154;-67
2022/06/25 09:40:09;;;;;;;4.40;2.13;;;;;;;;;;5092059;28;20050;-67
2022/06/25 09:42:37;;;;;;;5.13;2.53;;;;;;;;;;5100005;28;20046;-67
2022/06/25 09:45:06;;;;;;;3.20;2.45;;;;;;;;;;5104824;27;20089;-67
2022/06/25 09:47:45;;;;;;;2.95;2.30;;;;;;;;;;5092451;28;20024;-67
2022/06/25 09:50:13;;;;;;;4.07;2.30;;;;;;;;;;5092165;28;20040;-67
2022/06/25 09:52:49;;;;;;;4.20;2.10;;;;;;;;;;5090959;28;20161;-67
2022/06/25 09:55:15;;;;;;;3.92;2.33;;;;;;;;;;5090955;28;20048;-67
2022/06/25 09:57:41;;;;;;;3.33;2.35;;;;;;;;;;5108780;28;20031;-67
2022/06/25 10:00:07;;;;;;;3.47;1.90;;;;;;;;;;5092110;28;20036;-66
2022/06/25 10:02:33;;;;;;;2.53;1.60;;;;;;;;;;5090858;28;20039;-67
2022/06/25 10:05:03;;;;;;;4.88;1.80;;;;;;;;;;5091732;28;20079;-66
2022/06/25 10:10:19;;;;;;;5.32;2.10;;;;;;;;;;5091873;28;19924;-66
2022/06/25 10:12:49;;;;;;;5.13;1.92;;;;;;;;;;5102867;28;20113;-66
2022/06/25 10:15:17;;;;;;;2.92;1.70;;;;;;;;;;5099867;28;20071;-68
2022/06/25 10:17:44;;;;;;;3.40;1.70;;;;;;;;;;5090107;28;20036;-66
2022/06/25 10:20:10;;;;;;;3.83;1.50;;;;;;;;;;5091303;28;20040;-66
2022/06/25 10:22:37;;;;;;;2.13;1.48;;;;;;;;;;5091193;28;20036;-66
2022/06/25 10:25:03;;;;;;;5.93;1.70;;;;;;;;;;5098239;28;20067;-66
2022/06/25 10:27:37;;;;;;;3.20;1.75;;;;;;;;;;5091607;28;21036;-66
2022/06/25 10:30:03;;;;;;;4.60;1.73;;;;;;;;;;5089560;28;20483;-66
2022/06/25 10:32:34;;;;;;;2.97;1.63;;;;;;;;;;5102982;28;20086;-66
2022/06/25 10:35:04;;;;;;;2.72;1.55;;;;;;;;;;5112811;28;20440;-66
2022/06/25 10:37:30;;;;;;;;;;;;;;;;;;5100613;28;20056;-66
2022/06/25 10:39:57;;;;;;;4.05;1.70;;;;;;;;;;5090338;28;19916;-67
2022/06/25 10:45:12;;;;;;;2.78;1.50;;;;;;;;;;5099227;28;20036;-66
2022/06/25 10:47:39;;;;;;;4.35;1.70;;;;;;;;;;5083069;28;20028;-66
2022/06/25 10:50:23;;;;;;;4.07;2.03;;;;;;;;;;5090035;28;20187;-66
2022/06/25 10:53:07;;;;;;;3.05;1.58;;;;;;;;;;5085463;28;20093;-66
2022/06/25 10:55:37;;;;;;;1.63;1.38;;;;;;;;;;5092421;28;20517;-67
2022/06/25 10:58:23;;;;;;;4.35;1.67;;;;;;;;;;5093798;28;20119;-66
2022/06/25 11:01:01;;;;;;;5.03;1.70;;;;;;;;;;5099416;28;20042;-66
2022/06/25 11:03:30;;;;;;;4.05;1.60;;;;;;;;;;5094474;28;20046;-66
2022/06/25 11:06:00;;;;;;;4.57;1.60;;;;;;;;;;5095510;28;20039;-66
2022/06/25 11:08:32;;;;;;;3.05;1.60;;;;;;;;;;5102429;28;20501;-66
2022/06/25 11:10:58;;;;;;;2.67;1.80;;;;;;;;;;5100666;28;20493;-66
2022/06/25 11:13:24;;;;;;;5.50;1.60;;;;;;;;;;5100191;28;20401;-66
2022/06/25 11:15:51;;;;;;;1.92;1.50;;;;;;;;;;5087618;28;20048;-66
2022/06/25 11:18:17;;;;;;;3.53;1.60;;;;;;;;;;5094913;28;20537;-66
2022/06/25 11:20:43;;;;;;;3.60;1.38;;;;;;;;;;5096856;28;20449;-66
2022/06/25 11:23:13;;;;;;;5.25;1.40;;;;;;;;;;5092702;28;20115;-66
2022/06/25 11:28:52;;;;;;;;;;;;;;;;;;5090014;28;20485;-66
2022/06/25 11:31:18;;;;;;;2.85;1.17;;;;;;;;;;5097714;28;20006;-66
2022/06/25 11:33:44;;;;;;;2.85;1.40;;;;;;;;;;5094339;28;20068;-66
2022/06/25 11:36:11;;;;;;;2.55;1.23;;;;;;;;;;5099373;28;20043;-66
2022/06/25 11:38:39;;;;;;;3.40;1.80;;;;;;;;;;5096666;28;20123;-66
2022/06/25 11:41:05;;;;;;;3.97;1.70;;;;;;;;;;5115228;28;20473;-66
2022/06/25 11:43:34;;;;;;;3.70;1.20;;;;;;;;;;5101548;28;20111;-66
2022/06/25 11:46:01;;;;;;;6.05;1.20;;;;;;;;;;5098208;28;20111;-66
2022/06/25 11:48:34;;;;;;;2.85;1.17;;;;;;;;;;5106243;28;20036;-66
2022/06/25 11:51:01;;;;;;;2.88;1.33;;;;;;;;;;5096514;28;20526;-66
2022/06/25 11:53:27;;;;;;;2.03;1.10;;;;;;;;;;5102262;28;20035;-66
2022/06/25 11:56:03;;;;;;;1.80;1.20;;;;;;;;;;5099750;28;20050;-67
2022/06/25 11:58:31;;;;;;;2.30;1.20;;;;;;;;;;5109625;28;20516;-67
2022/06/25 12:00:58;;;;;;;3.13;1.05;;;;;;;;;;5092624;28;20665;-67
2022/06/25 12:03:25;;;;;;;3.38;1.13;;;;;;;;;;5093027;28;20036;-67
2022/06/25 12:05:52;;;;;;;1.88;1.20;;;;;;;;;;5094326;28;20028;-67
2022/06/25 12:08:20;;;;;;;4.32;1.02;;;;;;;;;;5089776;28;20048;-67
2022/06/25 12:10:48;;;;;;;1.50;1.30;;;;;;;;;;5109398;28;20512;-67
2022/06/25 12:13:15;;;;;;;3.50;1.35;;;;;;;;;;5115099;28;20043;-67
2022/06/25 12:15:41;;;;;;;2.72;1.38;;;;;;;;;;5109600;28;20036;-67
2022/06/25 12:18:08;;;;;;;2.45;1.25;;;;;;;;;;5093053;28;20137;-67
2022/06/25 12:20:34;;;;;;;2.83;1.20;;;;;;;;;;5092905;28;20070;-67
2022/06/25 12:23:00;;;;;;;1.67;1.35;;;;;;;;;;5093647;28;20040;-66
2022/06/25 12:25:31;;;;;;;2.40;1.20;;;;;;;;;;5107373;28;20050;-67
2022/06/25 12:27:57;;;;;;;1.73;1.23;;;;;;;;;;5096909;28;20051;-66
2022/06/25 12:30:28;;;;;;;3.15;1.30;;;;;;;;;;5100689;28;20048;-67
2022/06/25 12:32:57;;;;;;;2.00;1.30;;;;;;;;;;5092236;28;21609;-67
2022/06/25 12:35:27;;;;;;;2.08;1.10;;;;;;;;;;5097012;28;20051;-67
2022/06/25 12:38:00;;;;;;;3.10;1.15;;;;;;;;;;5098704;28;20038;-66
2022/06/25 12:40:26;;;;;;;4.75;1.10;;;;;;;;;;5092509;28;20513;-66
2022/06/25 12:42:56;;;;;;;2.05;1.20;;;;;;;;;;5089755;28;20379;-67
2022/06/25 12:45:22;;;;;;;2.35;1.10;;;;;;;;;;5093954;28;20089;-67
2022/06/25 12:47:48;;;;;;;2.05;1.00;;;;;;;;;;5096934;28;20043;-67
2022/06/25 12:50:25;;;;;;;2.28;1.30;;;;;;;;;;5093664;28;20040;-66
2022/06/25 12:52:51;;;;;;;2.40;1.10;;;;;;;;;;5097790;28;20483;-67
2022/06/25 12:55:18;;;;;;;2.40;1.27;;;;;;;;;;5105319;28;20050;-66
2022/06/25 12:57:44;;;;;;;2.95;1.13;;;;;;;;;;5086107;28;20097;-66
2022/06/25 13:00:16;;;;;;;3.42;1.00;;;;;;;;;;5101106;28;20113;-66
2022/06/25 13:02:42;;;;;;;1.17;1.08;;;;;;;;;;5105783;28;20032;-66
2022/06/25 13:05:08;;;;;;;3.15;1.23;;;;;;;;;;5114021;28;20039;-67
2022/06/25 13:07:34;;;;;;;2.28;1.30;;;;;;;;;;5097045;28;20075;-66
2022/06/25 13:10:01;;;;;;;3.08;1.20;;;;;;;;;;5092412;28;20032;-66
2022/06/25 13:12:30;;;;;;;1.77;1.30;;;;;;;;;;5091612;28;20496;-66
2022/06/25 13:14:56;;;;;;;1.75;1.17;;;;;;;;;;5092751;28;20437;-67
2022/06/25 13:17:23;;;;;;;5.88;1.40;;;;;;;;;;5092595;28;20096;-67
2022/06/25 13:19:49;;;;;;;5.43;1.40;;;;;;;;;;5100995;28;20028;-67
2022/06/25 13:22:15;;;;;;;3.20;1.40;;;;;;;;;;5095935;28;20047;-67
2022/06/25 13:24:42;;;;;;;2.47;1.23;;;;;;;;;;5096948;28;20485;-66
2022/06/25 13:27:08;;;;;;;1.70;1.50;;;;;;;;;;5102856;28;20054;-66
2022/06/25 13:29:34;;;;;;;3.00;1.33;;;;;;;;;;5096244;28;20032;-66
2022/06/25 13:32:00;;;;;;;4.35;1.63;;;;;;;;;;5087799;28;20046;-66
2022/06/25 13:34:27;;;;;;;3.58;1.50;;;;;;;;;;5097943;28;20044;-67
2022/06/25 13:36:53;;;;;;;2.67;1.58;;;;;;;;;;5088759;28;20043;-67
2022/06/25 13:39:19;;;;;;;2.60;1.70;;;;;;;;;;5093490;28;20032;-67
2022/06/25 13:41:45;;;;;;;1.98;1.63;;;;;;;;;;5098058;27;20118;-67
2022/06/25 13:44:14;;;;;;;3.67;1.77;;;;;;;;;;5090744;28;20489;-65
2022/06/25 13:46:41;;;;;;;4.35;1.40;;;;;;;;;;5086708;28;20036;-65
2022/06/25 13:49:07;;;;;;;2.55;1.40;;;;;;;;;;5090585;28;20040;-65
2022/06/25 13:51:34;;;;;;;2.53;1.90;;;;;;;;;;5086533;28;20044;-65
2022/06/25 13:54:00;;;;;;;2.47;1.50;;;;;;;;;;5090552;28;20039;-65
2022/06/25 13:56:26;;;;;;;4.30;1.60;;;;;;;;;;5093458;28;20123;-66
2022/06/25 13:58:52;;;;;;;3.08;1.60;;;;;;;;;;5099429;28;20243;-66
2022/06/25 14:01:18;;;;;;;3.50;1.70;;;;;;;;;;5103370;28;20036;-66
2022/06/25 14:03:44;;;;;;;3.13;1.27;;;;;;;;;;5099067;28;20044;-66
2022/06/25 14:06:10;;;;;;;2.00;1.38;;;;;;;;;;5097302;28;20046;-66
2022/06/25 14:08:36;;;;;;;3.33;1.60;;;;;;;;;;5089196;28;20044;-66
2022/06/25 14:11:03;;;;;;;3.47;1.40;;;;;;;;;;5089801;28;20063;-66
2022/06/25 14:13:29;;;;;;;3.53;1.38;;;;;;;;;;5102308;28;20412;-66
2022/06/25 14:15:55;;;;;;;2.08;1.17;;;;;;;;;;5097523;28;20040;-66
2022/06/25 14:18:22;;;;;;;2.33;1.15;;;;;;;;;;5092032;28;20097;-66
2022/06/25 14:20:48;;;;;;;1.75;1.00;;;;;;;;;;5103858;28;20104;-66
2022/06/25 14:23:14;;;;;;;2.33;0.98;;;;;;;;;;5103293;28;20067;-67
2022/06/25 14:25:40;;;;;;;1.85;1.27;;;;;;;;;;5093070;28;20032;-66
2022/06/25 14:28:06;;;;;;;2.35;0.93;;;;;;;;;;5098693;28;20035;-66
2022/06/25 14:30:32;;;;;;;2.10;0.80;;;;;;;;;;5088735;28;20413;-66
2022/06/25 14:33:01;;;;;;;2.10;1.13;;;;;;;;;;5096013;28;20093;-66
2022/06/25 14:35:27;;;;;;;2.35;0.80;;;;;;;;;;5106425;28;20081;-66
2022/06/25 14:43:25;;;;;;;2.97;0.90;;;;;;;;;;5098772;28;20039;-66
2022/06/25 14:45:51;;;;;;;0.63;0.63;;;;;;;;;;5090062;28;20040;-66
2022/06/25 14:48:17;;;;;;;2.28;0.75;;;;;;;;;;5096256;28;20051;-66
2022/06/25 14:50:43;;;;;;;1.95;1.00;;;;;;;;;;5092545;28;20164;-66
2022/06/25 14:53:10;;;;;;;1.13;0.65;;;;;;;;;;5089618;28;20083;-66
2022/06/25 14:55:36;;;;;;;1.42;0.80;;;;;;;;;;5087930;28;20039;-66
2022/06/25 14:58:02;;;;;;;2.25;0.73;;;;;;;;;;5089907;28;20036;-66
2022/06/25 15:00:28;;;;;;;13.80;1.38;;;;;;;;;;5104483;28;20046;-66